Time;durP1;ratioP1;P1;durP2;ratioP2;P2;SDS_P1;SDS_P2;PMS_P1;PMS_P2;Temp;Humidity;BMP_temperature;BMP_pressure;BME280_temperature;BME280_humidity;BME280_pressure;Samples;Min_cycle;Max_cycle;Signal;HPM_P1;HPM_P2
2023/03/13 00:03:36;;;;;;;11.73;3.28;;;;;;;;;;4929509;28;20359;-68
2023/03/13 00:07:16;;;;;;;7.78;3.40;;;;;;;;;;4930200;28;20237;-69
2023/03/13 00:10:57;;;;;;;8.77;2.70;;;;;;;;;;4930729;28;20051;-69
2023/03/13 00:13:59;;;;;;;10.82;2.75;;;;;;;;;;4926722;28;20075;-68
2023/03/13 00:16:28;;;;;;;5.18;2.60;;;;;;;;;;4916095;28;20131;-68
2023/03/13 00:18:57;;;;;;;9.05;3.08;;;;;;;;;;4935915;28;20047;-68
2023/03/13 00:21:26;;;;;;;5.78;2.42;;;;;;;;;;4931034;28;20680;-67
2023/03/13 00:23:51;;;;;;;6.88;2.80;;;;;;;;;;4930084;28;20047;-68
2023/03/13 00:26:22;;;;;;;5.40;2.60;;;;;;;;;;4929536;28;20051;-69
2023/03/13 00:28:49;;;;;;;9.23;3.42;;;;;;;;;;4928519;28;20459;-69
2023/03/13 00:31:20;;;;;;;9.68;3.15;;;;;;;;;;4930629;28;20312;-68
2023/03/13 00:33:49;;;;;;;8.80;3.60;;;;;;;;;;4932169;28;20416;-70
2023/03/13 00:36:18;;;;;;;6.32;2.97;;;;;;;;;;4928670;28;20589;-69
2023/03/13 00:39:26;;;;;;;3.92;2.83;;;;;;;;;;4923543;28;20161;-68
2023/03/13 00:43:06;;;;;;;4.38;2.75;;;;;;;;;;4929652;28;20127;-71
2023/03/13 00:46:48;;;;;;;8.85;3.13;;;;;;;;;;4929787;28;20476;-68
2023/03/13 00:50:28;;;;;;;5.70;2.97;;;;;;;;;;4935433;28;20051;-70
2023/03/13 00:54:09;;;;;;;12.48;3.05;;;;;;;;;;4926491;28;20134;-68
2023/03/13 00:57:49;;;;;;;7.43;3.65;;;;;;;;;;4927314;28;20793;-72
2023/03/13 01:01:12;;;;;;;7.43;3.38;;;;;;;;;;4928519;28;20070;-71
2023/03/13 01:04:14;;;;;;;6.57;3.25;;;;;;;;;;4931045;28;20479;-69
2023/03/13 01:06:41;;;;;;;7.75;3.22;;;;;;;;;;4931491;28;20043;-68
2023/03/13 01:09:12;;;;;;;6.85;3.20;;;;;;;;;;4926949;28;20084;-70
2023/03/13 01:11:41;;;;;;;8.30;3.25;;;;;;;;;;4930841;28;20159;-68
2023/03/13 01:14:10;;;;;;;8.77;3.25;;;;;;;;;;4929332;28;20055;-69
2023/03/13 01:16:38;;;;;;;6.53;3.22;;;;;;;;;;4928059;28;20062;-66
2023/03/13 01:19:11;;;;;;;9.35;3.30;;;;;;;;;;4931612;28;20047;-69
2023/03/13 01:21:38;;;;;;;6.80;3.30;;;;;;;;;;4930819;28;20115;-68
2023/03/13 01:24:04;;;;;;;8.10;3.13;;;;;;;;;;4930798;28;20047;-70
2023/03/13 01:26:31;;;;;;;7.28;3.63;;;;;;;;;;4932633;28;20055;-68
2023/03/13 01:28:57;;;;;;;10.43;3.60;;;;;;;;;;4930843;28;20393;-68
2023/03/13 01:31:27;;;;;;;8.05;3.08;;;;;;;;;;4933083;28;20544;-71
2023/03/13 01:33:58;;;;;;;6.30;3.33;;;;;;;;;;4929194;28;20043;-68
2023/03/13 01:36:25;;;;;;;8.65;3.50;;;;;;;;;;4929732;28;20503;-69
2023/03/13 01:38:53;;;;;;;6.03;3.45;;;;;;;;;;4927460;28;20039;-68
2023/03/13 01:41:20;;;;;;;8.38;3.15;;;;;;;;;;4932795;28;20055;-68
2023/03/13 01:43:49;;;;;;;6.00;3.25;;;;;;;;;;4929742;28;20055;-68
2023/03/13 01:46:19;;;;;;;7.32;3.13;;;;;;;;;;4928999;28;20044;-67
2023/03/13 01:49:09;;;;;;;7.50;3.30;;;;;;;;;;4946158;28;20518;-68
2023/03/13 01:51:48;;;;;;;5.45;3.10;;;;;;;;;;4940281;28;20661;-69
2023/03/13 01:54:19;;;;;;;5.78;2.85;;;;;;;;;;4927663;28;20048;-68
2023/03/13 01:56:49;;;;;;;10.95;3.03;;;;;;;;;;4925994;28;20059;-67
2023/03/13 01:59:20;;;;;;;7.00;3.00;;;;;;;;;;4930553;28;20609;-70
2023/03/13 02:01:50;;;;;;;5.38;2.88;;;;;;;;;;4925910;28;20122;-69
2023/03/13 02:04:18;;;;;;;6.30;2.80;;;;;;;;;;4928404;28;20110;-68
2023/03/13 02:06:47;;;;;;;5.07;2.58;;;;;;;;;;4922916;28;21021;-67
2023/03/13 02:09:18;;;;;;;6.07;2.85;;;;;;;;;;4930750;28;20051;-69
2023/03/13 02:11:57;;;;;;;5.28;2.70;;;;;;;;;;4926154;28;20622;-68
2023/03/13 02:14:27;;;;;;;7.05;2.97;;;;;;;;;;4925938;28;20122;-70
2023/03/13 02:16:54;;;;;;;7.85;2.90;;;;;;;;;;4931843;28;20500;-68
2023/03/13 02:19:44;;;;;;;3.97;2.70;;;;;;;;;;4934095;28;20071;-67
2023/03/13 02:22:52;;;;;;;4.57;2.55;;;;;;;;;;4928882;28;20051;-67
2023/03/13 02:25:24;;;;;;;10.35;2.85;;;;;;;;;;4932698;28;20491;-69
2023/03/13 02:27:59;;;;;;;5.47;3.08;;;;;;;;;;4930823;28;20059;-67
2023/03/13 02:30:27;;;;;;;5.70;3.17;;;;;;;;;;4929852;28;20074;-67
2023/03/13 02:32:55;;;;;;;4.55;2.92;;;;;;;;;;4909896;28;20066;-67
2023/03/13 02:35:23;;;;;;;5.55;2.83;;;;;;;;;;4932061;28;20057;-69
2023/03/13 02:37:53;;;;;;;9.25;3.08;;;;;;;;;;4931357;28;20059;-68
2023/03/13 02:40:26;;;;;;;4.80;2.90;;;;;;;;;;4931660;28;20278;-67
2023/03/13 02:42:55;;;;;;;7.68;2.83;;;;;;;;;;4927986;28;20074;-67
2023/03/13 02:45:21;;;;;;;5.45;3.10;;;;;;;;;;4932240;28;20567;-69
2023/03/13 02:47:48;;;;;;;6.63;3.05;;;;;;;;;;4937702;28;20098;-67
2023/03/13 02:50:16;;;;;;;6.22;2.83;;;;;;;;;;4934144;28;20459;-67
2023/03/13 02:53:02;;;;;;;6.88;3.00;;;;;;;;;;4914027;28;20067;-71
2023/03/13 02:55:39;;;;;;;4.85;2.60;;;;;;;;;;4931770;28;20059;-68
2023/03/13 02:58:06;;;;;;;4.60;2.78;;;;;;;;;;4932813;28;20059;-67
2023/03/13 03:00:32;;;;;;;8.55;3.00;;;;;;;;;;4934799;28;20087;-71
2023/03/13 03:02:58;;;;;;;4.88;2.72;;;;;;;;;;4924873;28;20645;-68
2023/03/13 03:05:24;;;;;;;6.30;3.20;;;;;;;;;;4929333;28;20051;-68
2023/03/13 03:07:50;;;;;;;5.80;2.90;;;;;;;;;;4932163;28;20149;-68
2023/03/13 03:10:17;;;;;;;6.97;2.72;;;;;;;;;;4928205;28;20062;-66
2023/03/13 03:12:43;;;;;;;4.50;2.95;;;;;;;;;;4928013;28;20055;-69
2023/03/13 03:15:10;;;;;;;6.80;2.90;;;;;;;;;;4935984;28;20050;-68
2023/03/13 03:17:36;;;;;;;11.00;2.70;;;;;;;;;;4931664;28;20055;-68
2023/03/13 03:20:06;;;;;;;7.05;3.00;;;;;;;;;;4914239;28;20055;-68
2023/03/13 03:22:33;;;;;;;7.07;3.03;;;;;;;;;;4932115;28;20067;-67
2023/03/13 03:25:00;;;;;;;5.18;2.88;;;;;;;;;;4931921;28;20057;-68
2023/03/13 03:27:26;;;;;;;8.88;2.90;;;;;;;;;;4934148;28;20134;-68
2023/03/13 03:29:52;;;;;;;10.38;2.80;;;;;;;;;;4933761;28;20090;-68
2023/03/13 03:32:19;;;;;;;8.48;2.90;;;;;;;;;;4931694;28;20057;-68
2023/03/13 03:34:46;;;;;;;5.25;2.30;;;;;;;;;;4932093;28;20051;-67
2023/03/13 03:37:12;;;;;;;3.90;2.33;;;;;;;;;;4931529;28;20051;-68
2023/03/13 03:39:38;;;;;;;5.78;2.15;;;;;;;;;;4933713;28;20102;-68
2023/03/13 03:42:04;;;;;;;6.43;2.47;;;;;;;;;;4933422;28;20055;-69
2023/03/13 03:44:33;;;;;;;11.65;2.75;;;;;;;;;;4913306;28;20366;-71
2023/03/13 03:46:59;;;;;;;5.05;1.90;;;;;;;;;;4936318;28;20484;-67
2023/03/13 03:49:25;;;;;;;4.50;2.33;;;;;;;;;;4930320;28;20074;-68
2023/03/13 03:51:52;;;;;;;5.68;2.60;;;;;;;;;;4932338;28;20047;-68
2023/03/13 03:54:18;;;;;;;6.80;2.47;;;;;;;;;;4931542;28;20070;-68
2023/03/13 03:56:44;;;;;;;7.30;2.50;;;;;;;;;;4931660;28;20051;-67
2023/03/13 03:59:14;;;;;;;11.10;2.50;;;;;;;;;;4931357;28;20123;-69
2023/03/13 04:01:40;;;;;;;8.13;2.50;;;;;;;;;;4931931;28;20058;-67
2023/03/13 04:04:07;;;;;;;5.28;2.33;;;;;;;;;;4931443;28;20464;-67
2023/03/13 04:06:37;;;;;;;4.63;2.60;;;;;;;;;;4930003;28;20057;-68
2023/03/13 04:09:04;;;;;;;8.00;2.20;;;;;;;;;;4933653;28;20066;-68
2023/03/13 04:11:30;;;;;;;6.32;2.33;;;;;;;;;;4933354;28;20075;-68
2023/03/13 04:13:56;;;;;;;5.97;2.35;;;;;;;;;;4932868;28;20055;-72
2023/03/13 04:16:22;;;;;;;4.22;2.50;;;;;;;;;;4932152;28;20058;-69
2023/03/13 04:18:48;;;;;;;4.13;2.40;;;;;;;;;;4930383;28;20380;-71
2023/03/13 04:21:14;;;;;;;7.05;2.30;;;;;;;;;;4928851;28;20145;-70
2023/03/13 04:23:40;;;;;;;9.55;3.05;;;;;;;;;;4931912;28;20051;-68
2023/03/13 04:26:06;;;;;;;6.57;2.53;;;;;;;;;;4930792;28;20491;-68
2023/03/13 04:28:31;;;;;;;6.68;2.03;;;;;;;;;;4930578;28;20066;-70
2023/03/13 04:30:57;;;;;;;3.38;1.92;;;;;;;;;;4912961;28;20476;-68
2023/03/13 04:33:24;;;;;;;6.65;2.72;;;;;;;;;;4930024;28;20078;-67
2023/03/13 04:35:50;;;;;;;4.60;2.20;;;;;;;;;;4929997;28;20297;-68
2023/03/13 04:38:16;;;;;;;3.50;2.40;;;;;;;;;;4909814;28;20508;-69
2023/03/13 04:40:42;;;;;;;4.65;2.00;;;;;;;;;;4929359;28;20085;-69
2023/03/13 04:43:08;;;;;;;4.38;2.30;;;;;;;;;;4930306;28;20427;-69
2023/03/13 04:45:36;;;;;;;4.35;2.00;;;;;;;;;;4929731;28;20058;-69
2023/03/13 04:48:03;;;;;;;3.58;2.13;;;;;;;;;;4937355;28;20062;-68
2023/03/13 04:50:29;;;;;;;8.80;2.78;;;;;;;;;;4929259;28;20428;-68
2023/03/13 04:52:57;;;;;;;7.13;3.55;;;;;;;;;;4925854;28;20079;-68
2023/03/13 04:55:25;;;;;;;8.02;2.80;;;;;;;;;;4927512;28;20508;-69
2023/03/13 04:57:52;;;;;;;7.07;2.97;;;;;;;;;;4929093;28;20059;-67
2023/03/13 05:00:19;;;;;;;6.53;2.90;;;;;;;;;;4927072;28;20060;-68
2023/03/13 05:02:45;;;;;;;6.07;2.60;;;;;;;;;;4929307;28;20062;-70
2023/03/13 05:05:12;;;;;;;7.20;2.80;;;;;;;;;;4911893;28;20700;-68
2023/03/13 05:07:39;;;;;;;10.52;2.60;;;;;;;;;;4930239;28;20063;-68
2023/03/13 05:10:07;;;;;;;8.68;2.90;;;;;;;;;;4930946;28;20055;-68
2023/03/13 05:12:33;;;;;;;5.55;2.10;;;;;;;;;;4929912;28;20166;-68
2023/03/13 05:14:59;;;;;;;5.43;2.35;;;;;;;;;;4927657;28;20498;-67
2023/03/13 05:17:25;;;;;;;7.93;2.78;;;;;;;;;;4924658;28;20046;-69
2023/03/13 05:19:52;;;;;;;5.25;2.42;;;;;;;;;;4923217;28;20055;-70
2023/03/13 05:22:19;;;;;;;9.32;2.85;;;;;;;;;;4928937;28;20049;-69
2023/03/13 05:24:45;;;;;;;4.60;2.40;;;;;;;;;;4926819;28;20066;-67
2023/03/13 05:27:11;;;;;;;8.18;2.33;;;;;;;;;;4912713;28;20067;-68
2023/03/13 05:29:40;;;;;;;4.03;2.50;;;;;;;;;;4928917;28;20190;-68
2023/03/13 05:32:06;;;;;;;6.18;2.40;;;;;;;;;;4929478;28;20051;-69
2023/03/13 05:34:32;;;;;;;4.00;2.70;;;;;;;;;;4930765;28;20055;-70
2023/03/13 05:36:58;;;;;;;4.38;2.72;;;;;;;;;;4926978;28;20051;-69
2023/03/13 05:39:26;;;;;;;4.72;2.58;;;;;;;;;;4931996;28;20059;-68
2023/03/13 05:41:55;;;;;;;8.88;3.40;;;;;;;;;;4907383;28;20368;-68
2023/03/13 05:44:24;;;;;;;8.40;2.47;;;;;;;;;;4927367;28;20051;-70
2023/03/13 05:46:50;;;;;;;9.50;2.67;;;;;;;;;;4932647;28;20063;-70
2023/03/13 05:49:16;;;;;;;7.50;2.83;;;;;;;;;;4930669;28;20063;-68
2023/03/13 05:51:42;;;;;;;8.45;2.78;;;;;;;;;;4931380;28;20600;-70
2023/03/13 05:54:08;;;;;;;6.35;2.95;;;;;;;;;;4926919;28;20380;-68
2023/03/13 05:56:35;;;;;;;8.07;2.92;;;;;;;;;;4929977;28;20055;-68
2023/03/13 05:59:04;;;;;;;8.48;2.70;;;;;;;;;;4926492;28;20039;-68
2023/03/13 06:01:30;;;;;;;6.55;2.95;;;;;;;;;;4926309;28;20568;-70
2023/03/13 06:03:56;;;;;;;11.65;3.15;;;;;;;;;;4927900;28;20062;-67
2023/03/13 06:06:23;;;;;;;8.68;2.90;;;;;;;;;;4913298;28;20058;-70
2023/03/13 06:08:55;;;;;;;8.15;2.78;;;;;;;;;;4934020;28;20434;-68
2023/03/13 06:11:21;;;;;;;14.85;3.22;;;;;;;;;;4925532;28;20047;-67
2023/03/13 06:13:53;;;;;;;9.02;2.97;;;;;;;;;;4931603;28;20138;-69
2023/03/13 06:16:18;;;;;;;7.15;2.92;;;;;;;;;;4933844;28;20418;-70
2023/03/13 06:18:45;;;;;;;10.73;3.00;;;;;;;;;;4927293;28;20108;-69
2023/03/13 06:21:13;;;;;;;9.02;3.10;;;;;;;;;;4931055;28;20499;-71
2023/03/13 06:23:41;;;;;;;6.70;2.97;;;;;;;;;;4933711;28;20452;-68
2023/03/13 06:26:06;;;;;;;11.65;3.00;;;;;;;;;;4930809;28;20055;-69
2023/03/13 06:28:41;;;;;;;9.27;3.47;;;;;;;;;;4931728;28;20497;-68
2023/03/13 06:31:07;;;;;;;9.40;4.05;;;;;;;;;;4929150;28;20058;-66
2023/03/13 06:33:33;;;;;;;12.73;3.20;;;;;;;;;;4932463;28;20058;-67
2023/03/13 06:36:00;;;;;;;9.52;3.50;;;;;;;;;;4935164;28;20519;-68
2023/03/13 06:38:28;;;;;;;12.20;3.40;;;;;;;;;;4935934;28;20043;-67
2023/03/13 06:40:54;;;;;;;16.13;5.57;;;;;;;;;;4938399;28;20055;-69
2023/03/13 06:43:20;;;;;;;11.15;4.30;;;;;;;;;;4911385;28;20062;-68
2023/03/13 06:45:47;;;;;;;15.00;4.20;;;;;;;;;;4928675;28;20059;-70
2023/03/13 06:48:13;;;;;;;10.27;3.97;;;;;;;;;;4932609;28;20098;-68
2023/03/13 06:50:40;;;;;;;13.15;3.42;;;;;;;;;;4931746;28;20055;-68
2023/03/13 06:53:15;;;;;;;13.45;3.75;;;;;;;;;;4932516;28;20055;-67
2023/03/13 06:55:42;;;;;;;9.13;3.83;;;;;;;;;;4930985;28;20392;-73
2023/03/13 06:58:10;;;;;;;9.45;3.90;;;;;;;;;;4930256;28;20150;-63
2023/03/13 07:00:38;;;;;;;10.38;4.20;;;;;;;;;;4936091;28;20579;-66
2023/03/13 07:03:05;;;;;;;13.32;4.25;;;;;;;;;;4930951;28;20651;-69
2023/03/13 07:05:31;;;;;;;15.27;4.40;;;;;;;;;;4933843;28;20051;-68
2023/03/13 07:07:58;;;;;;;12.43;4.45;;;;;;;;;;4931389;28;20055;-68
2023/03/13 07:10:26;;;;;;;16.38;4.00;;;;;;;;;;4934680;28;20094;-70
2023/03/13 07:12:52;;;;;;;18.40;4.53;;;;;;;;;;4936248;28;20142;-70
2023/03/13 07:15:18;;;;;;;12.15;4.43;;;;;;;;;;4932571;28;20496;-71
2023/03/13 07:17:44;;;;;;;10.35;4.68;;;;;;;;;;4932926;28;20397;-69
2023/03/13 07:20:10;;;;;;;9.05;4.00;;;;;;;;;;4931269;28;20062;-70
2023/03/13 07:22:38;;;;;;;9.18;3.80;;;;;;;;;;4933897;28;20047;-70
2023/03/13 07:25:43;;;;;;;11.25;3.78;;;;;;;;;;4930376;28;20051;-67
2023/03/13 07:29:24;;;;;;;19.15;4.45;;;;;;;;;;4930564;28;20959;-68
2023/03/13 07:32:19;;;;;;;10.35;4.25;;;;;;;;;;4931125;28;20523;-68
2023/03/13 07:35:25;;;;;;;9.07;4.35;;;;;;;;;;4935430;28;20471;-66
2023/03/13 07:39:09;;;;;;;11.63;4.10;;;;;;;;;;4936660;28;20047;-66
2023/03/13 07:42:49;;;;;;;12.40;4.03;;;;;;;;;;4932524;28;20051;-68
2023/03/13 07:46:29;;;;;;;9.13;4.35;;;;;;;;;;4927625;28;20078;-67
2023/03/13 07:50:10;;;;;;;7.60;4.18;;;;;;;;;;4933891;28;20520;-66
2023/03/13 07:53:50;;;;;;;10.55;4.22;;;;;;;;;;4933346;28;20102;-69
2023/03/13 07:57:32;;;;;;;6.93;4.07;;;;;;;;;;4927110;28;20700;-71
2023/03/13 08:01:12;;;;;;;10.32;4.50;;;;;;;;;;4935356;28;20062;-70
2023/03/13 08:04:54;;;;;;;16.50;4.63;;;;;;;;;;4929489;28;20055;-69
2023/03/13 08:08:35;;;;;;;15.50;5.90;;;;;;;;;;4930028;28;20054;-69
2023/03/13 08:12:16;;;;;;;16.05;4.82;;;;;;;;;;4933147;28;20676;-70
2023/03/13 08:15:56;;;;;;;11.95;5.00;;;;;;;;;;4934849;28;20062;-68
2023/03/13 08:19:37;;;;;;;15.38;5.20;;;;;;;;;;4930670;28;20410;-70
2023/03/13 08:23:17;;;;;;;13.05;4.93;;;;;;;;;;4930880;28;20094;-69
2023/03/13 08:26:57;;;;;;;9.65;4.60;;;;;;;;;;4925540;28;20487;-71
2023/03/13 08:30:37;;;;;;;10.18;4.10;;;;;;;;;;4932359;28;20122;-71
2023/03/13 08:34:17;;;;;;;11.95;4.50;;;;;;;;;;4927519;28;20047;-72
2023/03/13 08:37:58;;;;;;;8.77;4.93;;;;;;;;;;4928020;28;20082;-69
2023/03/13 08:41:01;;;;;;;14.70;4.82;;;;;;;;;;4930889;28;20050;-69
2023/03/13 08:43:29;;;;;;;11.27;5.10;;;;;;;;;;4925721;28;20087;-68
2023/03/13 08:45:55;;;;;;;10.43;4.82;;;;;;;;;;4931735;28;20134;-70
2023/03/13 08:48:23;;;;;;;14.70;5.15;;;;;;;;;;4931714;28;20134;-69
2023/03/13 08:51:07;;;;;;;9.35;5.15;;;;;;;;;;4931426;28;20066;-68
2023/03/13 08:53:38;;;;;;;16.10;5.25;;;;;;;;;;4930220;28;20205;-70
2023/03/13 08:56:04;;;;;;;12.70;4.88;;;;;;;;;;4931087;28;20101;-69
2023/03/13 08:58:31;;;;;;;9.27;4.40;;;;;;;;;;4930202;28;20090;-68
2023/03/13 09:01:09;;;;;;;7.13;3.97;;;;;;;;;;4921815;28;20847;-68
2023/03/13 09:03:37;;;;;;;7.00;4.20;;;;;;;;;;4918110;28;20059;-69
2023/03/13 09:06:04;;;;;;;15.25;4.68;;;;;;;;;;4921968;28;20515;-71
2023/03/13 09:08:33;;;;;;;8.07;4.35;;;;;;;;;;4926243;28;20055;-71
2023/03/13 09:11:05;;;;;;;12.95;4.78;;;;;;;;;;4928853;28;20051;-68
2023/03/13 09:13:33;;;;;;;8.27;4.60;;;;;;;;;;4930481;28;20073;-69
2023/03/13 09:16:12;;;;;;;9.40;4.43;;;;;;;;;;4930108;28;20591;-68
2023/03/13 09:18:39;;;;;;;10.68;5.07;;;;;;;;;;4926213;28;20087;-69
2023/03/13 09:21:09;;;;;;;12.73;4.82;;;;;;;;;;4929585;28;20118;-69
2023/03/13 09:23:35;;;;;;;26.08;8.57;;;;;;;;;;4936816;28;20277;-70
2023/03/13 09:26:01;;;;;;;18.02;7.85;;;;;;;;;;4930165;28;20495;-68
2023/03/13 09:28:28;;;;;;;9.10;5.07;;;;;;;;;;4933645;28;20055;-70
2023/03/13 09:30:55;;;;;;;13.02;5.47;;;;;;;;;;4930095;28;20637;-69
2023/03/13 09:33:22;;;;;;;12.13;5.18;;;;;;;;;;4928877;28;20043;-69
2023/03/13 09:35:50;;;;;;;16.05;4.47;;;;;;;;;;4929795;28;20262;-69
2023/03/13 09:38:20;;;;;;;15.27;4.30;;;;;;;;;;4926955;28;20051;-70
2023/03/13 09:40:51;;;;;;;8.95;3.97;;;;;;;;;;4912481;28;20202;-69
2023/03/13 09:43:55;;;;;;;8.70;4.22;;;;;;;;;;4927766;28;20047;-69
2023/03/13 09:46:43;;;;;;;6.78;4.07;;;;;;;;;;4919647;28;20063;-70
2023/03/13 09:49:32;;;;;;;10.45;3.55;;;;;;;;;;4929788;28;20059;-68
2023/03/13 09:52:24;;;;;;;11.55;3.85;;;;;;;;;;4930170;28;20090;-69
2023/03/13 09:55:26;;;;;;;9.30;3.22;;;;;;;;;;4929867;28;20146;-69
2023/03/13 09:58:15;;;;;;;8.20;2.95;;;;;;;;;;4929584;28;20094;-70
2023/03/13 10:01:16;;;;;;;9.90;3.08;;;;;;;;;;4930304;28;20396;-70
2023/03/13 10:03:52;;;;;;;5.72;2.50;;;;;;;;;;4928459;28;20081;-68
2023/03/13 10:06:20;;;;;;;10.60;2.55;;;;;;;;;;4931219;28;20070;-68
2023/03/13 10:08:46;;;;;;;8.57;2.45;;;;;;;;;;4930025;28;20059;-69
2023/03/13 10:11:28;;;;;;;10.82;2.42;;;;;;;;;;4931460;28;20507;-69
2023/03/13 10:14:03;;;;;;;6.20;2.95;;;;;;;;;;4931473;28;20472;-69
2023/03/13 10:16:37;;;;;;;6.95;2.47;;;;;;;;;;4913207;28;20051;-69
2023/03/13 10:19:15;;;;;;;6.25;2.53;;;;;;;;;;4931756;28;20063;-68
2023/03/13 10:21:46;;;;;;;7.57;2.33;;;;;;;;;;4932724;28;20063;-70
2023/03/13 10:24:29;;;;;;;5.68;2.65;;;;;;;;;;4930838;28;20121;-68
2023/03/13 10:26:57;;;;;;;10.37;2.43;;;;;;;;;;4910063;28;20419;-69
2023/03/13 10:29:29;;;;;;;6.50;2.53;;;;;;;;;;4930472;28;20874;-68
2023/03/13 10:32:02;;;;;;;8.82;2.90;;;;;;;;;;4926105;28;20195;-68
2023/03/13 10:34:44;;;;;;;16.30;2.70;;;;;;;;;;4929275;28;20047;-68
2023/03/13 10:37:14;;;;;;;5.78;2.58;;;;;;;;;;4930867;28;20059;-69
2023/03/13 10:39:40;;;;;;;8.00;2.63;;;;;;;;;;4932064;28;20278;-69
2023/03/13 10:42:25;;;;;;;6.68;2.85;;;;;;;;;;4929389;28;20039;-71
2023/03/13 10:44:57;;;;;;;12.98;3.65;;;;;;;;;;4930491;28;20109;-73
2023/03/13 10:47:29;;;;;;;7.88;2.97;;;;;;;;;;4932864;28;20502;-69
2023/03/13 10:49:57;;;;;;;12.82;2.80;;;;;;;;;;4929699;28;20134;-68
2023/03/13 10:52:50;;;;;;;6.80;2.30;;;;;;;;;;4926670;28;20357;-68
2023/03/13 10:55:22;;;;;;;7.20;2.90;;;;;;;;;;4929425;28;20496;-70
2023/03/13 10:58:03;;;;;;;8.80;3.22;;;;;;;;;;4930199;28;20059;-67
2023/03/13 11:00:35;;;;;;;13.88;3.50;;;;;;;;;;4930763;28;20721;-69
2023/03/13 11:03:12;;;;;;;9.05;3.30;;;;;;;;;;4930698;28;20573;-68
2023/03/13 11:05:42;;;;;;;10.98;3.47;;;;;;;;;;4930773;28;20070;-68
2023/03/13 11:08:21;;;;;;;5.80;2.55;;;;;;;;;;4930464;28;20063;-70
2023/03/13 11:11:30;;;;;;;8.80;2.80;;;;;;;;;;4932128;28;20047;-68
2023/03/13 11:14:28;;;;;;;8.23;2.90;;;;;;;;;;4931153;28;20051;-68
2023/03/13 11:16:58;;;;;;;8.23;3.13;;;;;;;;;;4935114;28;20507;-67
2023/03/13 11:20:04;;;;;;;11.57;5.32;;;;;;;;;;4931957;28;20066;-69
2023/03/13 11:22:33;;;;;;;11.80;5.47;;;;;;;;;;4866300;29;20052;-68
2023/03/13 11:25:08;;;;;;;14.23;5.05;;;;;;;;;;4865599;29;20052;-68
2023/03/13 11:27:55;;;;;;;13.90;5.15;;;;;;;;;;4866698;29;20501;-70
2023/03/13 11:30:48;;;;;;;13.82;5.60;;;;;;;;;;4867894;29;20056;-68
2023/03/13 11:33:44;;;;;;;14.20;5.88;;;;;;;;;;4867301;29;21230;-69
2023/03/13 11:36:16;;;;;;;13.48;5.00;;;;;;;;;;4868938;29;20466;-68
2023/03/13 11:38:47;;;;;;;11.52;5.38;;;;;;;;;;4864221;29;20057;-70
2023/03/13 11:41:31;;;;;;;13.88;5.35;;;;;;;;;;4869986;29;20056;-70
2023/03/13 11:44:03;;;;;;;12.98;5.88;;;;;;;;;;4864654;29;20474;-70
2023/03/13 11:46:48;;;;;;;20.55;7.53;;;;;;;;;;4867787;29;20117;-69
2023/03/13 11:49:20;;;;;;;9.88;5.80;;;;;;;;;;4866443;29;20815;-69
2023/03/13 11:52:06;;;;;;;12.02;5.60;;;;;;;;;;4866456;29;20119;-68
2023/03/13 11:55:00;;;;;;;13.60;7.25;;;;;;;;;;4931558;28;20039;-70
2023/03/13 11:57:44;;;;;;;12.85;6.82;;;;;;;;;;4930287;28;20059;-69
2023/03/13 12:01:05;;;;;;;14.77;7.82;;;;;;;;;;4934256;28;20078;-67
2023/03/13 12:03:50;;;;;;;14.57;6.85;;;;;;;;;;4872986;29;20052;-68
2023/03/13 12:06:40;;;;;;;13.98;7.60;;;;;;;;;;4870840;29;20453;-69
2023/03/13 12:09:30;;;;;;;18.15;7.45;;;;;;;;;;4869797;29;20143;-70
2023/03/13 12:12:22;;;;;;;12.25;6.55;;;;;;;;;;4871410;29;20063;-67
2023/03/13 12:14:55;;;;;;;12.30;6.65;;;;;;;;;;4809901;29;20066;-67
2023/03/13 12:17:42;;;;;;;25.58;7.03;;;;;;;;;;4807811;29;20061;-69
2023/03/13 12:20:25;;;;;;;14.32;6.45;;;;;;;;;;4809125;29;20058;-67
2023/03/13 12:22:55;;;;;;;17.27;6.10;;;;;;;;;;4807620;29;20351;-67
2023/03/13 12:25:55;;;;;;;16.08;5.45;;;;;;;;;;4805347;29;20127;-69
2023/03/13 12:28:58;;;;;;;22.67;6.18;;;;;;;;;;4807100;29;20076;-71
2023/03/13 12:31:30;;;;;;;12.93;5.55;;;;;;;;;;4806108;29;20076;-70
2023/03/13 12:34:33;;;;;;;12.68;4.18;;;;;;;;;;4833387;29;20460;-68
2023/03/13 12:37:30;;;;;;;10.82;3.97;;;;;;;;;;4865127;29;20539;-68
2023/03/13 12:40:06;;;;;;;15.38;4.35;;;;;;;;;;4870377;29;20072;-70
2023/03/13 12:42:46;;;;;;;10.10;4.25;;;;;;;;;;4869003;29;20072;-69
2023/03/13 12:45:20;;;;;;;14.68;4.97;;;;;;;;;;4870083;29;20096;-70
2023/03/13 12:48:04;;;;;;;;;;;;;;;;;;4875884;29;20508;-68
2023/03/13 12:50:30;;;;;;;12.35;4.90;;;;;;;;;;4882829;29;19924;-68
2023/03/13 12:53:15;;;;;;;8.80;4.28;;;;;;;;;;4930487;28;20456;-69
2023/03/13 12:55:46;;;;;;;;;;;;;;;;;;4928707;28;20431;-67
2023/03/13 12:58:50;;;;;;;9.65;3.75;;;;;;;;;;4928354;28;19930;-71
2023/03/13 13:01:32;;;;;;;9.27;3.42;;;;;;;;;;4925702;28;20576;-68
2023/03/13 13:04:05;;;;;;;12.38;3.45;;;;;;;;;;4925933;28;20133;-68
2023/03/13 13:07:01;;;;;;;10.48;3.20;;;;;;;;;;4929966;28;20055;-67
2023/03/13 13:09:58;;;;;;;7.57;2.72;;;;;;;;;;4929232;28;20073;-68
2023/03/13 13:12:27;;;;;;;7.30;2.70;;;;;;;;;;4930644;28;20047;-68
2023/03/13 13:15:11;;;;;;;4.32;2.55;;;;;;;;;;4933755;28;20666;-67
2023/03/13 13:17:47;;;;;;;8.40;3.80;;;;;;;;;;4928803;28;20070;-69
2023/03/13 13:20:29;;;;;;;7.35;3.30;;;;;;;;;;4929201;28;20055;-68
2023/03/13 13:22:55;;;;;;;8.48;2.67;;;;;;;;;;4931428;28;20050;-67
2023/03/13 13:25:36;;;;;;;6.43;2.88;;;;;;;;;;4929565;28;20601;-70
2023/03/13 13:28:29;;;;;;;9.50;2.70;;;;;;;;;;4930936;28;20051;-67
2023/03/13 13:30:55;;;;;;;9.43;3.28;;;;;;;;;;4932705;28;20549;-68
2023/03/13 13:33:29;;;;;;;9.95;2.88;;;;;;;;;;4928232;28;20744;-68
2023/03/13 13:36:20;;;;;;;6.25;2.53;;;;;;;;;;4930756;28;20055;-70
2023/03/13 13:38:47;;;;;;;6.13;2.70;;;;;;;;;;4921880;28;20154;-71
2023/03/13 13:41:13;;;;;;;5.43;2.70;;;;;;;;;;4930878;28;20059;-69
2023/03/13 13:43:46;;;;;;;7.25;3.08;;;;;;;;;;4931423;28;20047;-70
2023/03/13 13:46:30;;;;;;;7.15;3.05;;;;;;;;;;4930333;28;20649;-68
2023/03/13 13:49:17;;;;;;;5.68;2.80;;;;;;;;;;4918353;28;20059;-69
2023/03/13 13:52:05;;;;;;;7.90;2.60;;;;;;;;;;4912082;28;20574;-70
2023/03/13 13:54:41;;;;;;;6.13;2.88;;;;;;;;;;4926909;28;20309;-68
2023/03/13 13:57:19;;;;;;;13.55;2.63;;;;;;;;;;4929966;28;20325;-69
2023/03/13 13:59:59;;;;;;;6.68;2.42;;;;;;;;;;4929466;28;20059;-69
2023/03/13 14:02:33;;;;;;;7.13;2.55;;;;;;;;;;4929761;28;20056;-70
2023/03/13 14:05:16;;;;;;;7.05;2.60;;;;;;;;;;4931171;28;20051;-70
2023/03/13 14:08:13;;;;;;;4.38;2.50;;;;;;;;;;4930460;28;20047;-70
2023/03/13 14:11:00;;;;;;;7.28;2.10;;;;;;;;;;4926700;28;20081;-70
2023/03/13 14:13:29;;;;;;;5.53;2.28;;;;;;;;;;4922477;28;20063;-68
2023/03/13 14:15:56;;;;;;;11.80;2.25;;;;;;;;;;4930032;28;20575;-69
2023/03/13 14:18:28;;;;;;;5.60;2.10;;;;;;;;;;4932579;28;20063;-70
2023/03/13 14:21:00;;;;;;;5.78;2.08;;;;;;;;;;4910648;28;20711;-69
2023/03/13 14:23:42;;;;;;;9.30;2.50;;;;;;;;;;4930187;28;20062;-70
2023/03/13 14:26:18;;;;;;;8.85;2.80;;;;;;;;;;4930116;28;20062;-70
2023/03/13 14:28:55;;;;;;;19.92;3.72;;;;;;;;;;4930366;28;20051;-69
2023/03/13 14:31:29;;;;;;;17.15;3.30;;;;;;;;;;4933109;28;20106;-68
2023/03/13 14:33:57;;;;;;;13.93;2.83;;;;;;;;;;4937547;28;20393;-70
2023/03/13 14:36:25;;;;;;;12.60;3.08;;;;;;;;;;4935234;28;20499;-69
2023/03/13 14:38:57;;;;;;;26.02;4.30;;;;;;;;;;4918631;28;20051;-70
2023/03/13 14:41:35;;;;;;;9.73;2.90;;;;;;;;;;4921992;28;20061;-71
2023/03/13 14:44:12;;;;;;;13.35;3.00;;;;;;;;;;4935370;28;20415;-70
2023/03/13 14:46:41;;;;;;;8.00;2.30;;;;;;;;;;4941747;28;20129;-70
2023/03/13 14:49:19;;;;;;;4.35;1.92;;;;;;;;;;4934311;28;20682;-69
2023/03/13 14:51:55;;;;;;;17.77;2.67;;;;;;;;;;4933545;28;20137;-69
2023/03/13 14:54:28;;;;;;;13.43;3.03;;;;;;;;;;4932429;28;20090;-68
2023/03/13 14:57:12;;;;;;;10.73;3.30;;;;;;;;;;4930656;28;20525;-69
2023/03/13 14:59:41;;;;;;;10.20;2.95;;;;;;;;;;4931353;28;20051;-69
2023/03/13 15:02:29;;;;;;;5.55;2.60;;;;;;;;;;4931821;28;20060;-69
2023/03/13 15:05:05;;;;;;;4.10;1.95;;;;;;;;;;4932445;28;20055;-69
2023/03/13 15:07:47;;;;;;;7.28;2.20;;;;;;;;;;4932275;28;20401;-68
2023/03/13 15:10:30;;;;;;;5.25;2.20;;;;;;;;;;4934275;28;20066;-73
2023/03/13 15:12:55;;;;;;;5.60;2.50;;;;;;;;;;4913204;28;20062;-70
2023/03/13 15:15:22;;;;;;;9.30;2.67;;;;;;;;;;4930029;28;20054;-71
2023/03/13 15:17:49;;;;;;;8.00;2.25;;;;;;;;;;4931349;28;20099;-70
2023/03/13 15:20:17;;;;;;;3.70;2.20;;;;;;;;;;4930024;28;20047;-69
2023/03/13 15:22:45;;;;;;;6.75;2.08;;;;;;;;;;4931087;28;20079;-70
2023/03/13 15:25:20;;;;;;;5.82;2.03;;;;;;;;;;4930739;28;20051;-68
2023/03/13 15:27:47;;;;;;;8.25;1.85;;;;;;;;;;4930992;28;20055;-69
2023/03/13 15:30:17;;;;;;;9.73;2.47;;;;;;;;;;4930261;28;20055;-70
2023/03/13 15:32:45;;;;;;;13.73;2.05;;;;;;;;;;4931726;28;20385;-70
2023/03/13 15:35:22;;;;;;;6.50;2.10;;;;;;;;;;4932419;28;20054;-70
2023/03/13 15:37:47;;;;;;;7.13;1.95;;;;;;;;;;4931337;28;20551;-68
2023/03/13 15:40:16;;;;;;;5.93;2.03;;;;;;;;;;4936568;28;20094;-69
2023/03/13 15:42:42;;;;;;;7.47;2.05;;;;;;;;;;4917200;28;20064;-71
2023/03/13 15:45:09;;;;;;;7.72;1.75;;;;;;;;;;4945713;28;20079;-69
2023/03/13 15:47:38;;;;;;;6.25;2.13;;;;;;;;;;4949360;28;20117;-69